Time;durP1;ratioP1;P1;durP2;ratioP2;P2;SDS_P1;SDS_P2;PMS_P1;PMS_P2;Temp;Humidity;BMP_temperature;BMP_pressure;BME280_temperature;BME280_humidity;BME280_pressure;Samples;Min_cycle;Max_cycle;Signal;HPM_P1;HPM_P2
2023/10/25 00:00:30;;;;;;;;;;;9.40;99.90;;;;;;5096209;28;19924;-31
2023/10/25 00:02:56;;;;;;;;;;;9.40;99.90;;;;;;5093746;28;19939;-32
2023/10/25 00:05:23;;;;;;;;;;;9.40;99.90;;;;;;5094108;28;19923;-32
2023/10/25 00:07:49;;;;;;;;;;;9.30;99.90;;;;;;5094471;28;19924;-31
2023/10/25 00:10:16;;;;;;;;;;;9.40;99.90;;;;;;5093749;28;20482;-32
2023/10/25 00:12:44;;;;;;;;;;;9.30;99.90;;;;;;5108705;28;19931;-31
2023/10/25 00:15:11;;;;;;;;;;;9.30;99.90;;;;;;5095125;28;20303;-31
2023/10/25 00:17:38;;;;;;;;;;;9.30;99.90;;;;;;5094120;28;20016;-32
2023/10/25 00:20:05;;;;;;;;;;;9.30;99.90;;;;;;5094710;28;19997;-33
2023/10/25 00:22:32;;;;;;;;;;;9.30;99.90;;;;;;5093252;28;20007;-32
2023/10/25 00:24:58;;;;;;;;;;;9.20;99.90;;;;;;5095883;28;19985;-32
2023/10/25 00:27:25;;;;;;;;;;;9.30;99.90;;;;;;5112499;28;20424;-31
2023/10/25 00:29:53;;;;;;;;;;;9.20;99.90;;;;;;5094198;28;20333;-32
2023/10/25 00:32:20;;;;;;;;;;;9.20;99.90;;;;;;5093171;28;20333;-32
2023/10/25 00:34:46;;;;;;;;;;;9.20;99.90;;;;;;5112432;28;19927;-33
2023/10/25 00:37:13;;;;;;;;;;;9.20;99.90;;;;;;5094952;27;19924;-32
2023/10/25 00:39:40;;;;;;;;;;;9.20;99.90;;;;;;5094920;28;19924;-33
2023/10/25 00:42:06;;;;;;;;;;;9.10;99.90;;;;;;5093386;28;20272;-32
2023/10/25 00:44:33;;;;;;;;;;;9.10;99.90;;;;;;5110676;28;20379;-33
2023/10/25 00:47:01;;;;;;;;;;;9.10;99.90;;;;;;5093418;28;20391;-33
2023/10/25 00:49:29;;;;;;;;;;;9.10;99.90;;;;;;5093812;28;20288;-33
2023/10/25 00:51:56;;;;;;;;;;;9.00;99.90;;;;;;5094772;28;19982;-33
2023/10/25 00:54:23;;;;;;;;;;;9.10;99.90;;;;;;5092528;28;19928;-33
2023/10/25 00:56:49;;;;;;;;;;;9.00;99.90;;;;;;5093337;28;20418;-32
2023/10/25 00:59:16;;;;;;;;;;;9.10;99.90;;;;;;5094023;28;19928;-32
2023/10/25 01:01:43;;;;;;;;;;;9.00;99.90;;;;;;5093762;28;19928;-33
2023/10/25 01:04:11;;;;;;;;;;;9.00;99.90;;;;;;5092900;28;20333;-33
2023/10/25 01:06:37;;;;;;;;;;;9.00;99.90;;;;;;5111895;28;19924;-32
2023/10/25 01:09:04;;;;;;;;;;;8.90;99.90;;;;;;5092865;28;19981;-32
2023/10/25 01:11:32;;;;;;;;;;;8.90;99.90;;;;;;5111792;28;19924;-32
2023/10/25 01:13:58;;;;;;;;;;;8.90;99.90;;;;;;5093596;28;19959;-33
2023/10/25 01:16:25;;;;;;;;;;;8.90;99.90;;;;;;5094948;28;19924;-33
2023/10/25 01:18:52;;;;;;;;;;;8.90;99.90;;;;;;5093395;28;20458;-32
2023/10/25 01:21:20;;;;;;;;;;;8.90;99.90;;;;;;5093898;28;19963;-33
2023/10/25 01:23:51;;;;;;;;;;;8.80;99.90;;;;;;5111362;28;19997;-32
2023/10/25 01:26:18;;;;;;;;;;;8.80;99.90;;;;;;5093972;28;20366;-33
2023/10/25 01:28:44;;;;;;;;;;;8.80;99.90;;;;;;5112263;28;19969;-33
2023/10/25 01:31:11;;;;;;;;;;;8.80;99.90;;;;;;5111200;28;19954;-32
2023/10/25 01:33:37;;;;;;;;;;;8.80;99.90;;;;;;5092665;28;19923;-32
2023/10/25 01:36:04;;;;;;;;;;;8.80;99.90;;;;;;5093757;28;19989;-34
2023/10/25 01:38:31;;;;;;;;;;;8.80;99.90;;;;;;5111830;28;19957;-33
2023/10/25 01:40:59;;;;;;;;;;;8.80;99.90;;;;;;5094415;28;19924;-32
2023/10/25 01:43:25;;;;;;;;;;;8.70;99.90;;;;;;5111055;28;19969;-32
2023/10/25 01:45:52;;;;;;;;;;;8.70;99.90;;;;;;5092854;28;19938;-33
2023/10/25 01:48:19;;;;;;;;;;;8.70;99.90;;;;;;5092695;28;20093;-32
2023/10/25 01:50:45;;;;;;;;;;;8.70;99.90;;;;;;5093982;28;20395;-33
2023/10/25 01:53:12;;;;;;;;;;;8.70;99.90;;;;;;5091464;28;19982;-32
2023/10/25 01:55:40;;;;;;;;;;;8.70;99.90;;;;;;5091172;28;20001;-33
2023/10/25 01:58:08;;;;;;;;;;;8.70;99.90;;;;;;5111721;28;19932;-32
2023/10/25 02:00:34;;;;;;;;;;;8.70;99.90;;;;;;5093922;28;19962;-33
2023/10/25 02:03:01;;;;;;;;;;;8.60;99.90;;;;;;5090875;28;19923;-33
2023/10/25 02:05:28;;;;;;;;;;;8.60;99.90;;;;;;5093019;28;20376;-32
2023/10/25 02:07:55;;;;;;;;;;;8.60;99.90;;;;;;5092888;28;19923;-33
2023/10/25 02:10:22;;;;;;;;;;;8.60;99.90;;;;;;5092852;28;20391;-32
2023/10/25 02:12:48;;;;;;;;;;;8.60;99.90;;;;;;5111290;28;19935;-32
2023/10/25 02:15:16;;;;;;;;;;;8.60;99.90;;;;;;5110808;28;19923;-33
2023/10/25 02:17:43;;;;;;;;;;;8.60;99.90;;;;;;5092824;28;20011;-31
2023/10/25 02:20:10;;;;;;;;;;;8.50;99.90;;;;;;5110838;28;19970;-32
2023/10/25 02:22:37;;;;;;;;;;;8.50;99.90;;;;;;5091833;28;19965;-32
2023/10/25 02:25:03;;;;;;;;;;;8.50;99.90;;;;;;5093693;28;19923;-32
2023/10/25 02:27:30;;;;;;;;;;;8.60;99.90;;;;;;5109725;28;19988;-32
2023/10/25 02:29:57;;;;;;;;;;;8.50;99.90;;;;;;5111252;28;20552;-33
2023/10/25 02:32:25;;;;;;;;;;;8.50;99.90;;;;;;5093288;28;19924;-33
2023/10/25 02:34:51;;;;;;;;;;;8.50;99.90;;;;;;5095404;28;19928;-33
2023/10/25 02:37:19;;;;;;;;;;;8.50;99.90;;;;;;5096361;28;20280;-32
2023/10/25 02:39:45;;;;;;;;;;;8.50;99.90;;;;;;5096521;28;20374;-32
2023/10/25 02:42:13;;;;;;;;;;;8.50;99.90;;;;;;5096985;28;19985;-33
2023/10/25 02:44:40;;;;;;;;;;;8.40;99.90;;;;;;5114887;28;19969;-32
2023/10/25 02:47:06;;;;;;;;;;;8.50;99.90;;;;;;5095726;28;19923;-32
2023/10/25 02:49:34;;;;;;;;;;;8.40;99.90;;;;;;5113557;28;20041;-32
2023/10/25 02:52:01;;;;;;;;;;;8.40;99.90;;;;;;5096475;28;19969;-33
2023/10/25 02:54:28;;;;;;;;;;;8.40;99.90;;;;;;5096914;28;19931;-33
2023/10/25 02:56:55;;;;;;;;;;;8.40;99.90;;;;;;5095610;28;20008;-32
2023/10/25 02:59:21;;;;;;;;;;;8.40;99.90;;;;;;5096068;28;20333;-33
2023/10/25 03:01:48;;;;;;;;;;;8.40;99.90;;;;;;5114977;28;19931;-32
2023/10/25 03:04:15;;;;;;;;;;;8.40;99.90;;;;;;5097495;28;19961;-32
2023/10/25 03:06:43;;;;;;;;;;;8.40;99.90;;;;;;5107300;28;19959;-32
2023/10/25 03:09:09;;;;;;;;;;;8.40;99.90;;;;;;5115143;28;20043;-31
2023/10/25 03:11:36;;;;;;;;;;;8.40;99.90;;;;;;5097200;28;19930;-32
2023/10/25 03:14:03;;;;;;;;;;;8.40;99.90;;;;;;5097113;28;19969;-32
2023/10/25 03:16:29;;;;;;;;;;;8.30;99.90;;;;;;5096070;28;19923;-32
2023/10/25 03:18:56;;;;;;;;;;;8.30;99.90;;;;;;5084715;28;19924;-31
2023/10/25 03:21:23;;;;;;;;;;;8.40;99.90;;;;;;5095552;28;19969;-32
2023/10/25 03:23:51;;;;;;;;;;;8.30;99.90;;;;;;5096976;28;19964;-31
2023/10/25 03:26:17;;;;;;;;;;;8.30;99.90;;;;;;5088878;28;20300;-33
2023/10/25 03:28:44;;;;;;;;;;;8.30;99.90;;;;;;5112990;28;19928;-32
2023/10/25 03:31:10;;;;;;;;;;;8.30;99.90;;;;;;5096019;28;19959;-31
2023/10/25 03:33:37;;;;;;;;;;;8.20;99.90;;;;;;5096231;28;19984;-33
2023/10/25 03:36:04;;;;;;;;;;;8.30;99.90;;;;;;5114332;28;19947;-32
2023/10/25 03:38:31;;;;;;;;;;;8.30;99.90;;;;;;5111280;28;20063;-31
2023/10/25 03:41:03;;;;;;;;;;;8.20;99.90;;;;;;5094032;28;19932;-31
2023/10/25 03:43:29;;;;;;;;;;;8.20;99.90;;;;;;5083131;28;20014;-31
2023/10/25 03:45:56;;;;;;;;;;;8.20;99.90;;;;;;5093647;28;19928;-31
2023/10/25 03:48:23;;;;;;;;;;;8.20;99.90;;;;;;5093758;28;20364;-31
2023/10/25 03:50:49;;;;;;;;;;;8.20;99.90;;;;;;5094615;28;19972;-31
2023/10/25 03:53:17;;;;;;;;;;;8.20;99.90;;;;;;5112860;28;19923;-32
2023/10/25 03:55:52;;;;;;;;;;;8.20;99.90;;;;;;5095011;28;19923;-32
2023/10/25 03:58:20;;;;;;;;;;;8.20;99.90;;;;;;5091323;28;19927;-32
2023/10/25 04:00:46;;;;;;;;;;;8.20;99.90;;;;;;5094413;28;19992;-32
2023/10/25 04:03:13;;;;;;;;;;;8.10;99.90;;;;;;5094375;28;20002;-32
2023/10/25 04:05:40;;;;;;;;;;;8.20;99.90;;;;;;5094688;28;19998;-32
2023/10/25 04:08:06;;;;;;;;;;;8.10;99.90;;;;;;5111371;28;20291;-33
2023/10/25 04:10:33;;;;;;;;;;;8.10;99.90;;;;;;5094735;28;19924;-32
2023/10/25 04:13:00;;;;;;;;;;;8.10;99.90;;;;;;5094369;28;19971;-32
2023/10/25 04:15:30;;;;;;;;;;;8.10;99.90;;;;;;5094943;28;19923;-33
2023/10/25 04:17:57;;;;;;;;;;;8.10;99.90;;;;;;5111768;28;19970;-32
2023/10/25 04:20:23;;;;;;;;;;;8.10;99.90;;;;;;5094658;28;19928;-33
2023/10/25 04:22:50;;;;;;;;;;;8.10;99.90;;;;;;5113949;28;20299;-33
2023/10/25 04:25:17;;;;;;;;;;;8.00;99.90;;;;;;5094124;28;20440;-32
2023/10/25 04:27:43;;;;;;;;;;;8.10;99.90;;;;;;5089226;28;20367;-33
2023/10/25 04:30:11;;;;;;;;;;;8.00;99.90;;;;;;5094480;28;19963;-33
2023/10/25 04:32:39;;;;;;;;;;;8.00;99.90;;;;;;5112853;28;19969;-33
2023/10/25 04:35:05;;;;;;;;;;;8.00;99.90;;;;;;5095040;28;19973;-34
2023/10/25 04:37:32;;;;;;;;;;;8.00;99.90;;;;;;5112537;28;19969;-32
2023/10/25 04:39:59;;;;;;;;;;;8.00;99.90;;;;;;5112388;28;20341;-33
2023/10/25 04:42:25;;;;;;;;;;;8.00;99.90;;;;;;5094269;28;19969;-33
2023/10/25 04:44:52;;;;;;;;;;;8.00;99.90;;;;;;5113731;28;19969;-33
2023/10/25 04:47:18;;;;;;;;;;;8.00;99.90;;;;;;5110748;28;19967;-32
2023/10/25 04:49:47;;;;;;;;;;;8.00;99.90;;;;;;5111620;28;19950;-33
2023/10/25 04:52:13;;;;;;;;;;;8.00;99.90;;;;;;5093725;28;20443;-32
2023/10/25 04:54:42;;;;;;;;;;;8.00;99.90;;;;;;5112107;28;19975;-34
2023/10/25 04:57:09;;;;;;;;;;;8.00;99.90;;;;;;5111172;28;20087;-33
2023/10/25 04:59:36;;;;;;;;;;;8.00;99.90;;;;;;5096892;28;19924;-32
2023/10/25 05:02:02;;;;;;;;;;;8.00;99.90;;;;;;5110040;28;20383;-33
2023/10/25 05:04:30;;;;;;;;;;;8.00;99.90;;;;;;5092693;28;19977;-32
2023/10/25 05:06:58;;;;;;;;;;;8.00;99.90;;;;;;5109984;28;19924;-33
2023/10/25 05:09:25;;;;;;;;;;;7.90;99.90;;;;;;5093879;28;19924;-31
2023/10/25 05:11:54;;;;;;;;;;;8.00;99.90;;;;;;5092548;28;19924;-32
2023/10/25 05:14:21;;;;;;;;;;;7.90;99.90;;;;;;5095081;28;19969;-32
2023/10/25 05:16:48;;;;;;;;;;;7.90;99.90;;;;;;5076776;28;19962;-32
2023/10/25 05:19:15;;;;;;;;;;;7.90;99.90;;;;;;5111278;28;19969;-33
2023/10/25 05:21:43;;;;;;;;;;;7.90;99.90;;;;;;5094163;28;20295;-32
2023/10/25 05:24:11;;;;;;;;;;;8.00;99.90;;;;;;5089726;28;19965;-32
2023/10/25 05:26:38;;;;;;;;;;;7.90;99.90;;;;;;5088225;28;20368;-33
2023/10/25 05:29:05;;;;;;;;;;;7.90;99.90;;;;;;5107657;28;20337;-33
2023/10/25 05:31:32;;;;;;;;;;;7.90;99.90;;;;;;5105276;28;19924;-32
2023/10/25 05:33:58;;;;;;;;;;;7.80;99.90;;;;;;5111453;28;19928;-32
2023/10/25 05:36:25;;;;;;;;;;;7.90;99.90;;;;;;5093636;28;19977;-32
2023/10/25 05:38:52;;;;;;;;;;;7.80;99.90;;;;;;5112798;28;19967;-34
2023/10/25 05:41:20;;;;;;;;;;;7.80;99.90;;;;;;5092845;28;19932;-32
2023/10/25 05:43:48;;;;;;;;;;;7.80;99.90;;;;;;5111887;28;19942;-34
2023/10/25 05:46:15;;;;;;;;;;;7.80;99.90;;;;;;5093470;28;19924;-32
2023/10/25 05:48:42;;;;;;;;;;;7.80;99.90;;;;;;5091890;28;19978;-32
2023/10/25 05:51:09;;;;;;;;;;;7.70;99.90;;;;;;5094536;28;19970;-33
2023/10/25 05:53:35;;;;;;;;;;;7.80;99.90;;;;;;5109190;28;19924;-32
2023/10/25 05:56:03;;;;;;;;;;;7.70;99.90;;;;;;5091684;28;19971;-32
2023/10/25 05:58:31;;;;;;;;;;;7.70;99.90;;;;;;5091160;28;20397;-32
2023/10/25 06:00:58;;;;;;;;;;;7.70;99.90;;;;;;5091367;28;19974;-32
2023/10/25 06:03:25;;;;;;;;;;;7.70;99.90;;;;;;5081316;28;19924;-31
2023/10/25 06:05:52;;;;;;;;;;;7.70;99.90;;;;;;5110624;28;20294;-32
2023/10/25 06:08:19;;;;;;;;;;;7.70;99.90;;;;;;5095607;28;20418;-32
2023/10/25 06:10:46;;;;;;;;;;;7.70;99.90;;;;;;5113341;28;20387;-32
2023/10/25 06:13:12;;;;;;;;;;;7.70;99.90;;;;;;5111666;28;19965;-32
2023/10/25 06:15:40;;;;;;;;;;;7.70;99.90;;;;;;5094831;28;20016;-32
2023/10/25 06:18:09;;;;;;;;;;;7.60;99.90;;;;;;5093908;28;19928;-32
2023/10/25 06:20:35;;;;;;;;;;;7.60;99.90;;;;;;5112272;28;19954;-32
2023/10/25 06:23:02;;;;;;;;;;;7.60;99.90;;;;;;5094876;28;20307;-32
2023/10/25 06:25:29;;;;;;;;;;;7.60;99.90;;;;;;5093325;28;19928;-31
2023/10/25 06:27:57;;;;;;;;;;;7.60;99.90;;;;;;5106719;28;19999;-33
2023/10/25 06:30:24;;;;;;;;;;;7.60;99.90;;;;;;5112898;28;20372;-34
2023/10/25 06:32:52;;;;;;;;;;;7.60;99.90;;;;;;5112118;28;20018;-32
2023/10/25 06:35:19;;;;;;;;;;;7.60;99.90;;;;;;5104403;28;20001;-33
2023/10/25 06:37:46;;;;;;;;;;;7.60;99.90;;;;;;5113559;28;19924;-34
2023/10/25 06:40:13;;;;;;;;;;;7.60;99.90;;;;;;5092128;28;19924;-32
2023/10/25 06:42:40;;;;;;;;;;;7.60;99.90;;;;;;5104737;28;20387;-33
2023/10/25 06:45:08;;;;;;;;;;;7.60;99.90;;;;;;5106047;28;19958;-32
2023/10/25 06:47:35;;;;;;;;;;;7.60;99.90;;;;;;5094687;28;20380;-32
2023/10/25 06:50:03;;;;;;;;;;;7.60;99.90;;;;;;5111816;28;19931;-33
2023/10/25 06:52:30;;;;;;;;;;;7.60;99.90;;;;;;5082017;28;19981;-33
2023/10/25 06:54:57;;;;;;;;;;;7.70;99.90;;;;;;5108559;28;20380;-34
2023/10/25 06:57:24;;;;;;;;;;;7.70;99.90;;;;;;5110745;27;20035;-32
2023/10/25 06:59:51;;;;;;;;;;;7.70;99.90;;;;;;5094447;28;20018;-32
2023/10/25 07:02:27;;;;;;;;;;;7.70;99.90;;;;;;5089549;28;20549;-32
2023/10/25 07:04:55;;;;;;;;;;;7.80;99.90;;;;;;5094035;28;20341;-32
2023/10/25 07:07:23;;;;;;;;;;;7.80;99.90;;;;;;5110868;28;19927;-32
2023/10/25 07:09:50;;;;;;;;;;;7.80;99.90;;;;;;5092771;28;19962;-33
2023/10/25 07:12:17;;;;;;;;;;;7.80;99.90;;;;;;5092576;28;19924;-33
2023/10/25 07:14:44;;;;;;;;;;;7.80;99.90;;;;;;5111752;28;20326;-32
2023/10/25 07:17:10;;;;;;;;;;;7.90;99.90;;;;;;5112200;28;19923;-31
2023/10/25 07:19:38;;;;;;;;;;;7.90;99.90;;;;;;5107164;28;20280;-32
2023/10/25 07:22:04;;;;;;;;;;;7.90;99.90;;;;;;5085381;28;19928;-32
2023/10/25 07:24:32;;;;;;;;;;;7.90;99.90;;;;;;5108530;27;19927;-32
2023/10/25 07:26:59;;;;;;;;;;;7.90;99.90;;;;;;5094921;28;20330;-32
2023/10/25 07:29:26;;;;;;;;;;;7.90;99.90;;;;;;5091806;28;19924;-33
2023/10/25 07:31:52;;;;;;;;;;;8.00;99.90;;;;;;5091343;28;19936;-32
2023/10/25 07:34:20;;;;;;;;;;;8.00;99.90;;;;;;5113561;28;19931;-32
2023/10/25 07:36:46;;;;;;;;;;;8.00;99.90;;;;;;5109168;27;19962;-34
2023/10/25 07:39:15;;;;;;;;;;;8.00;99.90;;;;;;5110669;28;20319;-32
2023/10/25 07:41:43;;;;;;;;;;;8.10;99.90;;;;;;5091679;28;19958;-32
2023/10/25 07:44:09;;;;;;;;;;;8.10;99.90;;;;;;5100345;28;20023;-33
2023/10/25 07:46:36;;;;;;;;;;;8.20;99.90;;;;;;5108290;27;20008;-32
2023/10/25 07:49:03;;;;;;;;;;;8.20;99.90;;;;;;5092359;28;19958;-32
2023/10/25 07:51:29;;;;;;;;;;;8.20;99.90;;;;;;5111717;28;19928;-32
2023/10/25 07:53:56;;;;;;;;;;;8.30;99.90;;;;;;5107654;28;20367;-32
2023/10/25 07:56:23;;;;;;;;;;;8.30;99.90;;;;;;5109244;28;19984;-32
2023/10/25 07:58:51;;;;;;;;;;;8.30;99.90;;;;;;5108338;28;20009;-31
2023/10/25 08:01:17;;;;;;;;;;;8.30;99.90;;;;;;5104222;28;20414;-32
2023/10/25 08:03:44;;;;;;;;;;;8.40;99.90;;;;;;5110389;27;19927;-32
2023/10/25 08:06:11;;;;;;;;;;;8.30;99.90;;;;;;5087800;28;19938;-34
2023/10/25 08:08:38;;;;;;;;;;;8.40;99.90;;;;;;5089401;27;19969;-33
2023/10/25 08:11:05;;;;;;;;;;;8.50;99.90;;;;;;5110079;28;19950;-32
2023/10/25 08:13:32;;;;;;;;;;;8.50;99.90;;;;;;5093522;28;20425;-32
2023/10/25 08:16:00;;;;;;;;;;;8.50;99.90;;;;;;5092713;28;20008;-32
2023/10/25 08:18:26;;;;;;;;;;;8.50;99.90;;;;;;5092642;28;19954;-33
2023/10/25 08:20:53;;;;;;;;;;;8.60;99.90;;;;;;5092503;28;20404;-30
2023/10/25 08:23:20;;;;;;;;;;;8.60;99.90;;;;;;5110355;28;19965;-32
2023/10/25 08:25:46;;;;;;;;;;;8.70;99.90;;;;;;5090536;28;19923;-31
2023/10/25 08:28:13;;;;;;;;;;;8.70;99.90;;;;;;5087668;28;19962;-31
2023/10/25 08:30:40;;;;;;;;;;;8.70;99.90;;;;;;5086713;28;19924;-32
2023/10/25 08:33:08;;;;;;;;;;;8.80;99.90;;;;;;5110684;27;19977;-32
2023/10/25 08:35:34;;;;;;;;;;;8.80;99.90;;;;;;5111480;28;19928;-33
2023/10/25 08:38:01;;;;;;;;;;;8.80;99.90;;;;;;5111713;28;19977;-33
2023/10/25 08:40:28;;;;;;;;;;;8.90;99.90;;;;;;5093542;28;19981;-33
2023/10/25 08:42:54;;;;;;;;;;;8.90;99.90;;;;;;5111141;28;20622;-32
2023/10/25 08:45:21;;;;;;;;;;;9.00;99.90;;;;;;5108686;28;20431;-32
2023/10/25 08:47:47;;;;;;;;;;;9.00;99.90;;;;;;5110418;28;20407;-32
2023/10/25 08:50:19;;;;;;;;;;;9.00;99.90;;;;;;5093455;28;20415;-33
2023/10/25 08:52:48;;;;;;;;;;;9.10;99.90;;;;;;5109477;28;20417;-31
2023/10/25 08:55:14;;;;;;;;;;;9.10;99.90;;;;;;5110304;28;19951;-31
2023/10/25 08:57:41;;;;;;;;;;;9.20;99.90;;;;;;5110978;28;20282;-32
2023/10/25 09:00:09;;;;;;;;;;;9.20;99.90;;;;;;5093011;28;19924;-32
2023/10/25 09:02:36;;;;;;;;;;;9.30;99.90;;;;;;5092962;28;19923;-32
2023/10/25 09:05:03;;;;;;;;;;;9.30;99.90;;;;;;5108599;28;19923;-33
2023/10/25 09:07:31;;;;;;;;;;;9.40;99.90;;;;;;5092794;28;19984;-33
2023/10/25 09:09:58;;;;;;;;;;;9.40;99.90;;;;;;5111146;28;19924;-33
2023/10/25 09:12:25;;;;;;;;;;;9.50;99.90;;;;;;5091477;28;19993;-32
2023/10/25 09:14:51;;;;;;;;;;;9.60;99.90;;;;;;5111064;28;20011;-33
2023/10/25 09:17:18;;;;;;;;;;;9.60;99.90;;;;;;5093795;28;19969;-32
2023/10/25 09:19:45;;;;;;;;;;;9.70;99.90;;;;;;5110311;28;19971;-33
2023/10/25 09:22:20;;;;;;;;;;;9.80;99.90;;;;;;5091521;28;19924;-32
2023/10/25 09:24:48;;;;;;;;;;;9.90;99.90;;;;;;5091809;28;19923;-32
2023/10/25 09:27:15;;;;;;;;;;;10.00;99.90;;;;;;5089739;28;19963;-33
2023/10/25 09:29:41;;;;;;;;;;;10.20;99.90;;;;;;5107240;28;20308;-33
2023/10/25 09:32:08;;;;;;;;;;;10.30;99.90;;;;;;5091160;28;20471;-32
2023/10/25 09:34:35;;;;;;;;;;;10.40;99.90;;;;;;5090435;28;19931;-32
2023/10/25 09:37:01;;;;;;;;;;;10.50;99.90;;;;;;5090147;28;20002;-32
2023/10/25 09:39:28;;;;;;;;;;;10.60;99.90;;;;;;5086364;28;19928;-32
2023/10/25 09:41:56;;;;;;;;;;;10.70;99.90;;;;;;5089993;28;19977;-32
2023/10/25 09:44:25;;;;;;;;;;;10.80;99.90;;;;;;5092587;28;19923;-32
2023/10/25 09:46:52;;;;;;;;;;;10.90;99.90;;;;;;5111374;28;19924;-33
2023/10/25 09:49:19;;;;;;;;;;;11.00;99.90;;;;;;5092799;28;20406;-32
2023/10/25 09:51:50;;;;;;;;;;;11.10;99.90;;;;;;5104157;28;19927;-34
2023/10/25 09:54:18;;;;;;;;;;;11.20;99.90;;;;;;5110000;28;19928;-32
2023/10/25 09:56:45;;;;;;;;;;;11.30;99.90;;;;;;5093875;28;19923;-34
2023/10/25 09:59:13;;;;;;;;;;;11.40;99.90;;;;;;5114940;28;20055;-32
2023/10/25 10:01:39;;;;;;;;;;;11.40;99.90;;;;;;5114282;28;20465;-33
2023/10/25 10:04:10;;;;;;;;;;;11.50;99.90;;;;;;5112099;27;19923;-32
2023/10/25 10:06:37;;;;;;;;;;;11.60;99.90;;;;;;5097690;28;19976;-32
2023/10/25 10:09:06;;;;;;;;;;;11.60;99.90;;;;;;5112153;28;20372;-32
2023/10/25 10:11:41;;;;;;;;;;;11.60;99.90;;;;;;5091245;28;19924;-32
2023/10/25 10:14:28;;;;;;;;;;;11.60;99.90;;;;;;5092396;28;20004;-32
2023/10/25 10:16:59;;;;;;;;;;;11.70;99.90;;;;;;5094589;28;20047;-32
2023/10/25 10:19:25;;;;;;;;;;;11.70;99.90;;;;;;5108740;28;19923;-32
2023/10/25 10:22:08;;;;;;;;;;;11.80;99.90;;;;;;5092244;28;19928;-33
2023/10/25 10:24:39;;;;;;;;;;;11.80;99.90;;;;;;5090299;28;20020;-33
2023/10/25 10:27:05;;;;;;;;;;;11.80;99.90;;;;;;5113089;28;20405;-34
2023/10/25 10:29:40;;;;;;;;;;;11.80;99.90;;;;;;5094340;28;19958;-32
2023/10/25 10:32:07;;;;;;;;;;;11.80;99.90;;;;;;5110629;28;20480;-32
2023/10/25 10:34:38;;;;;;;;;;;11.80;99.90;;;;;;5095856;28;19924;-33
2023/10/25 10:37:08;;;;;;;;;;;11.80;99.90;;;;;;5089720;28;19954;-31
2023/10/25 10:39:35;;;;;;;;;;;11.80;99.90;;;;;;5108955;27;19923;-34
2023/10/25 10:42:02;;;;;;;;;;;11.80;99.90;;;;;;5093732;28;19935;-33
2023/10/25 10:44:28;;;;;;;;;;;11.90;99.90;;;;;;5106520;28;19927;-33
2023/10/25 10:46:58;;;;;;;;;;;11.80;99.90;;;;;;5113039;28;19924;-32
2023/10/25 10:49:26;;;;;;;;;;;11.90;99.90;;;;;;5095927;28;20003;-33
2023/10/25 10:51:54;;;;;;;;;;;11.90;99.90;;;;;;5111299;28;19923;-32
2023/10/25 10:54:21;;;;;;;;;;;11.90;99.90;;;;;;5079692;28;20002;-34
2023/10/25 10:56:48;;;;;;;;;;;11.90;99.90;;;;;;5086214;28;20005;-32
2023/10/25 10:59:14;;;;;;;;;;;11.90;99.90;;;;;;5099968;27;20391;-31
2023/10/25 11:01:41;;;;;;;;;;;11.90;99.90;;;;;;5091994;28;19931;-31
2023/10/25 11:04:09;;;;;;;;;;;11.90;99.90;;;;;;5103047;28;20375;-34
2023/10/25 11:06:36;;;;;;;;;;;11.80;99.90;;;;;;5083773;28;20330;-32
2023/10/25 11:09:03;;;;;;;;;;;11.80;99.90;;;;;;5091354;28;19953;-32
2023/10/25 11:11:30;;;;;;;;;;;11.80;99.90;;;;;;5094701;28;19931;-33
2023/10/25 11:13:57;;;;;;;;;;;11.70;99.90;;;;;;5085599;27;19991;-32
2023/10/25 11:16:23;;;;;;;;;;;11.70;99.90;;;;;;5092175;28;20102;-32
2023/10/25 11:18:52;;;;;;;;;;;11.70;99.90;;;;;;5076266;28;19924;-32
2023/10/25 11:21:20;;;;;;;;;;;11.70;99.90;;;;;;5110570;28;20394;-33
2023/10/25 11:23:46;;;;;;;;;;;11.70;99.90;;;;;;5093995;28;20359;-34
2023/10/25 11:26:13;;;;;;;;;;;11.70;99.90;;;;;;5099327;28;19958;-33
2023/10/25 11:28:40;;;;;;;;;;;11.70;99.90;;;;;;5095416;28;19924;-33
2023/10/25 11:31:06;;;;;;;;;;;11.60;99.90;;;;;;5091832;28;19970;-33
2023/10/25 11:33:43;;;;;;;;;;;11.60;99.90;;;;;;5106880;28;20011;-33
2023/10/25 11:36:11;;;;;;;;;;;11.60;99.90;;;;;;5090955;28;19950;-33
2023/10/25 11:38:43;;;;;;;;;;;11.60;99.90;;;;;;5077302;28;19975;-33
2023/10/25 11:41:10;;;;;;;;;;;11.50;99.90;;;;;;5106538;28;20034;-33
2023/10/25 11:43:36;;;;;;;;;;;11.50;99.90;;;;;;5087350;28;19997;-34
2023/10/25 11:46:03;;;;;;;;;;;11.50;99.90;;;;;;5091624;28;20812;-33
2023/10/25 11:48:30;;;;;;;;;;;11.50;99.90;;;;;;5111656;28;19928;-32
2023/10/25 11:50:57;;;;;;;;;;;11.50;99.90;;;;;;5094212;28;19924;-34
2023/10/25 11:53:23;;;;;;;;;;;11.50;99.90;;;;;;5112518;28;19923;-32
2023/10/25 11:55:52;;;;;;;;;;;11.50;99.90;;;;;;5109202;28;20372;-34
2023/10/25 11:58:19;;;;;;;;;;;11.50;99.90;;;;;;5093600;28;19956;-33
2023/10/25 12:00:46;;;;;;;;;;;11.50;99.90;;;;;;5093688;28;19969;-32
2023/10/25 12:03:12;;;;;;;;;;;11.50;99.90;;;;;;5112077;28;19927;-32
2023/10/25 12:05:41;;;;;;;;;;;11.50;99.90;;;;;;5094380;28;19964;-33
2023/10/25 12:08:07;;;;;;;;;;;11.40;99.90;;;;;;5094353;28;20451;-33
2023/10/25 12:10:34;;;;;;;;;;;11.40;99.90;;;;;;5093617;28;19924;-33
2023/10/25 12:13:02;;;;;;;;;;;11.40;99.90;;;;;;5094623;28;20020;-33
2023/10/25 12:15:29;;;;;;;;;;;11.40;99.90;;;;;;5094789;27;19987;-33
2023/10/25 12:17:55;;;;;;;;;;;11.40;99.90;;;;;;5095285;28;19928;-32
2023/10/25 12:20:22;;;;;;;;;;;11.40;99.90;;;;;;5093141;28;20300;-33
2023/10/25 12:22:49;;;;;;;;;;;11.40;99.90;;;;;;5108043;28;19928;-33
2023/10/25 12:25:16;;;;;;;;;;;11.30;99.90;;;;;;5094562;28;19932;-35
2023/10/25 12:27:44;;;;;;;;;;;11.30;99.90;;;;;;5094973;28;19931;-33
2023/10/25 12:30:12;;;;;;;;;;;11.30;99.90;;;;;;5094663;28;19928;-33
2023/10/25 12:32:39;;;;;;;;;;;11.30;99.90;;;;;;5079060;28;21344;-33
2023/10/25 12:35:06;;;;;;;;;;;11.30;99.90;;;;;;5083199;28;19977;-32
2023/10/25 12:37:33;;;;;;;;;;;11.30;99.90;;;;;;5109969;28;19976;-33
2023/10/25 12:39:59;;;;;;;;;;;11.30;99.90;;;;;;5113365;28;19924;-32
2023/10/25 12:42:26;;;;;;;;;;;11.30;99.90;;;;;;5094482;28;20003;-34
2023/10/25 12:44:53;;;;;;;;;;;11.30;99.90;;;;;;5109685;28;19981;-32
2023/10/25 12:47:22;;;;;;;;;;;11.40;99.90;;;;;;5111781;28;19923;-33
2023/10/25 12:49:49;;;;;;;;;;;11.20;99.90;;;;;;5092472;28;19932;-33
2023/10/25 12:52:15;;;;;;;;;;;11.30;99.90;;;;;;5088605;28;20449;-33
2023/10/25 12:54:42;;;;;;;;;;;11.30;99.90;;;;;;5107674;28;19938;-32
2023/10/25 12:57:09;;;;;;;;;;;11.30;99.90;;;;;;5108963;28;20272;-32
2023/10/25 12:59:35;;;;;;;;;;;11.30;99.90;;;;;;5093407;28;20445;-32
2023/10/25 13:02:02;;;;;;;;;;;11.30;99.90;;;;;;5088804;28;20022;-32
2023/10/25 13:04:30;;;;;;;;;;;11.30;99.90;;;;;;5087659;28;19976;-33
2023/10/25 13:06:57;;;;;;;;;;;11.30;99.90;;;;;;5093292;28;19927;-31
2023/10/25 13:09:23;;;;;;;;;;;11.30;99.90;;;;;;5091562;28;20372;-32
2023/10/25 13:11:52;;;;;;;;;;;11.30;99.90;;;;;;5092999;28;19958;-32
2023/10/25 13:14:18;;;;;;;;;;;11.20;99.90;;;;;;5098637;28;19924;-31
2023/10/25 13:16:45;;;;;;;;;;;11.30;99.90;;;;;;5086826;28;19924;-33
2023/10/25 13:19:12;;;;;;;;;;;11.30;99.90;;;;;;5083965;28;20427;-32
2023/10/25 13:21:41;;;;;;;;;;;11.30;99.90;;;;;;5089851;28;19930;-33
2023/10/25 13:24:09;;;;;;;;;;;11.20;99.90;;;;;;5106928;28;19935;-32
2023/10/25 13:26:36;;;;;;;;;;;11.30;99.90;;;;;;5109315;28;19930;-32
2023/10/25 13:29:02;;;;;;;;;;;11.30;99.90;;;;;;5113785;28;19975;-33
2023/10/25 13:31:29;;;;;;;;;;;11.30;99.90;;;;;;5088029;28;19958;-33
2023/10/25 13:33:55;;;;;;;;;;;11.30;99.90;;;;;;5113307;28;20050;-33
2023/10/25 13:36:22;;;;;;;;;;;11.30;99.90;;;;;;5082983;28;20389;-32
2023/10/25 13:38:50;;;;;;;;;;;11.20;99.90;;;;;;5098274;28;19924;-32
2023/10/25 13:41:17;;;;;;;;;;;11.30;99.90;;;;;;5090984;28;20333;-32
2023/10/25 13:43:44;;;;;;;;;;;11.30;99.90;;;;;;5087913;28;20368;-32
2023/10/25 13:49:01;;;;;;;;;;;11.20;99.90;;;;;;5071760;28;19924;-32
2023/10/25 13:51:28;;;;;;;;;;;11.30;99.90;;;;;;5088577;28;20333;-32
2023/10/25 13:53:56;;;;;;;;;;;11.30;99.90;;;;;;5091419;28;19928;-33
2023/10/25 13:56:22;;;;;;;;;;;11.20;99.90;;;;;;5067777;28;20380;-32
2023/10/25 13:58:49;;;;;;;;;;;11.20;99.90;;;;;;5072722;28;19998;-32
2023/10/25 14:01:16;;;;;;;;;;;11.30;99.90;;;;;;5086967;28;19928;-33
2023/10/25 14:03:42;;;;;;;;;;;11.20;99.90;;;;;;5091266;28;20045;-32
2023/10/25 14:06:14;;;;;;;;;;;11.30;99.90;;;;;;5086959;28;19924;-32
2023/10/25 14:08:41;;;;;;;;;;;11.30;99.90;;;;;;5076810;28;19931;-33
2023/10/25 14:11:09;;;;;;;;;;;11.30;99.90;;;;;;5067796;28;19932;-31
2023/10/25 14:13:35;;;;;;;;;;;11.30;99.90;;;;;;5083302;28;20190;-31
2023/10/25 14:16:06;;;;;;;;;;;11.30;99.90;;;;;;5082464;28;19956;-33
2023/10/25 14:18:32;;;;;;;;;;;11.30;99.90;;;;;;5088778;28;20043;-31
2023/10/25 14:20:59;;;;;;;;;;;11.30;99.90;;;;;;5068915;28;19928;-32
2023/10/25 14:23:26;;;;;;;;;;;11.30;99.90;;;;;;5073332;28;19986;-32
2023/10/25 14:25:52;;;;;;;;;;;11.30;99.90;;;;;;5065134;28;19974;-32
2023/10/25 14:28:21;;;;;;;;;;;11.30;99.90;;;;;;5090454;28;19935;-32